Luanda, Angola

6:42 PM WAT on July 12, 2014 (GMT +0100)
4th Of February (FNLU) Elev 243 ft | 8.86 °S, 13.23 °E | Change Station

Current weather conditions updated 42 minutes ago

Scattered Clouds
Scattered Clouds
70 °F
Feels Like 70 °F
N
10
Wind Variable Wind from SW

Tomorrow is forecast to be Cooler than today.

Today
High -- | Low -- °F
--% Chance of Precip.
Yesterday
High -- | Low -- °F
Precip. -- in
6:23 AM 6:02 PM
Full, 100% visible
Pressure 29.95 in
Visibility 6.2 miles
Clouds Scattered Clouds 2300 ft
Dew Point 61 °F
Humidity 73%
Rainfall 0.00 in
Snow Depth Not available.
UV 0 out of 12
Pollen Not available.
Air Quality Not available.
Flu Activity Not available.
METAR FNLU 121700Z 23009KT 9999 SCT023 21/16 Q1014 NOSIG

More Conditions Fewer Conditions

Pressure 29.95 in
Visibility 6.2 miles
Clouds Scattered Clouds 2300 ft
Dew Point 61 °F
Humidity 73%
Rainfall 0.00 in
Snow Depth Not available.
UV 0 out of 12
Pollen Not available.
Air Quality Not available.
Flu Activity Not available.
METAR FNLU 121700Z 23009KT 9999 SCT023 21/16 Q1014 NOSIG

More Conditions Fewer Conditions

10-Day Weather Forecast

Almanac

Astronomy

Jul. 12, 2014 Rise Set
Actual Time 6:23 AM WAT 6:02 PM WAT
Civil Twilight 6:00 AM WAT 6:24 PM WAT
Nautical Twilight 5:34 AM WAT 6:50 PM WAT
Astronomical Twilight 5:08 AM WAT 7:16 PM WAT
Moon 6:13 PM WAT 6:04 AM WAT
Length of Visible Light 12h 23m
Length of Day
11h 38m
Tomorrow will be 0m 11s longer.
Full, 100% of the Moon is Illuminated
Today
Full
Jul 18
Last Quarter
Jul 26
New
Aug 3
First Quarter
Aug 10
Full

Today's Extremes

Country Highs Country Lows

Community

WunderPhotos

Upload Photos

1,732,898 photos uploaded!

WunderBlogs® & News

By Dr. Jeff Masters
Director of Meteorology, Weather Underground
By Kari Strenfel
Meteorologist, Weather Underground
By Christopher C. Burt
Weather Historian, Weather Underground
July 12, 2014
July 12, 2014
July 12, 2014

Nearby

Snow Depth

Not available.

Earthquake Activity

City Distance Mag. Time & Date
No recent earthquake activity has been reported nearby.
Minimum magnitude displayed is 2.5.

Coastal Water Temperatures

Place Temperature
No Stations Reporting

Nearby Weather Stations

Station Location Temp. Heat Index Dew Point Humidity Wind Precip. Elev Updated Type
CNL - Ilha do Cabo, Luanda 74.7 °F 73 °F 73 °F 94% SW  at  11.7 mph 0.00 in / hr 16 ft 6:41 PM WAT Rapid Fire

Show More Stations Show Fewer Stations